createdAt,value
2019-01-09T00:02:15.911Z,98076.03
2019-01-09T00:04:46.448Z,98068.91
2019-01-09T00:07:16.981Z,98083.80
2019-01-09T00:09:48.920Z,98078.27
2019-01-09T00:12:19.530Z,98081.85
2019-01-09T00:14:50.029Z,98090.75
2019-01-09T00:17:20.584Z,98082.84
2019-01-09T00:19:51.085Z,98088.20
2019-01-09T00:22:21.630Z,98083.19
2019-01-09T00:24:53.587Z,98087.72
2019-01-09T00:27:24.135Z,98083.20
2019-01-09T00:29:54.680Z,98093.90
2019-01-09T00:32:25.209Z,98102.96
2019-01-09T00:34:55.743Z,98091.61
2019-01-09T00:37:26.303Z,98088.98
2019-01-09T00:39:57.072Z,98092.17
2019-01-09T00:42:27.623Z,98100.89
2019-01-09T00:44:58.198Z,98111.37
2019-01-09T00:47:28.759Z,98111.67
2019-01-09T00:49:59.316Z,98112.28
2019-01-09T00:52:29.837Z,98114.04
2019-01-09T00:55:00.404Z,98104.20
2019-01-09T00:57:30.906Z,98108.17
2019-01-09T01:00:04.520Z,98100.23
2019-01-09T01:03:27.362Z,98098.94
2019-01-09T01:06:48.824Z,98099.38
2019-01-09T01:10:13.646Z,98096.30
2019-01-09T01:13:37.805Z,98092.77
2019-01-09T01:17:22.155Z,98092.55
2019-01-09T01:20:32.006Z,98099.14
2019-01-09T01:24:25.184Z,98094.48
2019-01-09T01:27:12.146Z,98080.91
2019-01-09T01:30:49.617Z,98079.44
2019-01-09T01:34:11.392Z,98075.72
2019-01-09T01:37:56.866Z,98082.32
2019-01-09T01:41:10.895Z,98099.31
2019-01-09T01:44:16.104Z,98095.69
2019-01-09T01:47:58.395Z,98090.81
2019-01-09T01:51:19.768Z,98080.75
2019-01-09T01:54:43.402Z,98062.12
2019-01-09T01:58:10.287Z,98067.12
2019-01-09T02:01:52.395Z,98088.29
2019-01-09T02:05:37.641Z,98077.94
2019-01-09T02:09:12.906Z,98098.77
2019-01-09T02:12:34.583Z,98085.84
2019-01-09T02:16:34.760Z,98088.59
2019-01-09T02:19:28.802Z,98072.77
2019-01-09T02:22:58.300Z,98098.30
2019-01-09T02:26:24.719Z,98091.36
2019-01-09T02:30:05.962Z,98087.64
2019-01-09T02:32:36.433Z,98089.45
2019-01-09T02:35:06.965Z,98082.69
2019-01-09T02:37:39.931Z,98065.66
2019-01-09T02:40:10.487Z,98058.58
2019-01-09T02:42:40.997Z,98051.64
2019-01-09T02:45:12.799Z,98052.72
2019-01-09T02:47:43.354Z,98045.64
2019-01-09T02:50:13.911Z,98057.94
2019-01-09T02:52:44.417Z,98053.41
2019-01-09T02:55:14.968Z,98039.66
2019-01-09T02:57:45.519Z,98042.89
2019-01-09T03:00:16.069Z,98036.11
2019-01-09T03:02:46.633Z,98040.60
2019-01-09T03:05:17.129Z,98037.72
2019-01-09T03:07:47.652Z,98038.36
2019-01-09T03:10:18.933Z,98038.70
2019-01-09T03:12:49.439Z,98029.95
2019-01-09T03:15:19.982Z,98036.11
2019-01-09T03:17:50.490Z,98040.69
2019-01-09T03:20:21.031Z,98030.59
2019-01-09T03:22:51.597Z,98035.47
2019-01-09T03:25:22.114Z,98032.59
2019-01-09T03:27:52.663Z,98031.98
2019-01-09T03:30:23.181Z,98026.33
2019-01-09T03:32:53.742Z,98024.34
2019-01-09T03:35:24.249Z,98024.21
2019-01-09T03:37:54.842Z,98035.38
2019-01-09T03:40:25.379Z,98030.34
2019-01-09T03:42:55.920Z,98031.98
2019-01-09T03:45:26.500Z,98025.16
2019-01-09T03:47:56.983Z,98024.12
2019-01-09T03:50:27.534Z,98029.48
2019-01-09T03:52:58.070Z,98022.18
2019-01-09T03:55:28.562Z,98034.18
2019-01-09T03:57:59.107Z,98014.77
2019-01-09T04:00:29.615Z,98012.83
2019-01-09T04:03:00.205Z,98016.70
2019-01-09T04:05:30.754Z,98004.46
2019-01-09T04:08:01.285Z,98006.40
2019-01-09T04:10:31.771Z,98005.89
2019-01-09T04:13:02.334Z,98003.17
2019-01-09T04:15:33.067Z,97998.81
2019-01-09T04:18:03.574Z,97998.64
2019-01-09T04:20:34.111Z,97996.05
2019-01-09T04:23:04.759Z,98000.62
2019-01-09T04:25:35.301Z,97997.08
2019-01-09T04:28:05.874Z,97988.20
2019-01-09T04:30:36.388Z,97999.67
2019-01-09T04:33:06.933Z,97999.16
2019-01-09T04:35:39.776Z,98002.56
2019-01-09T04:38:10.329Z,97981.55
2019-01-09T04:40:40.914Z,98001.23
2019-01-09T04:43:11.471Z,97996.05
2019-01-09T04:45:41.998Z,97998.38
2019-01-09T04:48:12.508Z,97990.27
2019-01-09T04:50:43.039Z,97984.75
2019-01-09T04:53:13.595Z,97996.40
2019-01-09T04:55:44.240Z,97983.94
2019-01-09T04:58:14.741Z,97984.62
2019-01-09T05:00:45.305Z,97989.63
2019-01-09T05:03:15.858Z,97997.43
2019-01-09T05:05:46.393Z,97998.98
2019-01-09T05:08:16.908Z,98001.88
2019-01-09T05:10:47.495Z,98005.11
2019-01-09T05:13:19.715Z,98003.81
2019-01-09T05:15:51.935Z,98002.99
2019-01-09T05:18:22.489Z,98002.00
2019-01-09T05:20:53.056Z,97998.64
2019-01-09T05:23:23.665Z,98005.67
2019-01-09T05:25:54.185Z,98010.03
2019-01-09T05:28:24.803Z,98006.13
2019-01-09T05:30:55.356Z,98001.44
2019-01-09T05:33:26.975Z,98022.75
2019-01-09T05:35:57.527Z,98012.38
2019-01-09T05:38:28.103Z,98009.11
2019-01-09T05:40:58.668Z,98020.09
2019-01-09T05:43:29.224Z,98008.84
2019-01-09T05:45:59.769Z,98006.13
2019-01-09T05:48:30.280Z,98005.13
2019-01-09T05:51:00.889Z,98003.02
2019-01-09T05:53:31.379Z,98001.92
2019-01-09T05:56:01.955Z,97999.86
2019-01-09T05:58:32.537Z,97995.80
2019-01-09T06:01:03.196Z,97998.81
2019-01-09T06:03:33.766Z,97983.94
2019-01-09T06:06:04.290Z,97986.02
2019-01-09T06:08:35.769Z,97984.41
2019-01-09T06:11:06.395Z,97974.07
2019-01-09T06:13:39.689Z,97977.47
2019-01-09T06:16:11.668Z,97978.72
2019-01-09T06:18:42.473Z,97970.27
2019-01-09T06:21:13.153Z,97968.38
2019-01-09T06:23:43.723Z,97981.30
2019-01-09T06:26:14.265Z,97989.72
2019-01-09T06:28:44.791Z,97983.89
2019-01-09T06:31:15.367Z,97985.49
2019-01-09T06:33:45.921Z,97985.95
2019-01-09T06:36:16.497Z,97984.50
2019-01-09T06:38:47.020Z,97990.14
2019-01-09T06:41:17.588Z,97992.89
2019-01-09T06:43:48.090Z,97999.01
2019-01-09T06:46:18.658Z,98003.18
2019-01-09T06:48:49.195Z,98010.28
2019-01-09T06:51:19.809Z,98008.98
2019-01-09T06:53:50.382Z,98008.17
2019-01-09T06:56:20.865Z,98018.03
2019-01-09T06:58:54.210Z,98016.53
2019-01-09T07:01:24.841Z,98026.69
2019-01-09T07:03:55.407Z,98034.57
2019-01-09T07:06:25.921Z,98034.57
2019-01-09T07:08:56.479Z,98043.61
2019-01-09T07:11:27.071Z,98041.38
2019-01-09T07:13:57.672Z,98037.97
2019-01-09T07:16:28.434Z,98049.29
2019-01-09T07:18:59.145Z,98056.06
2019-01-09T07:21:29.893Z,98062.00
2019-01-09T07:24:00.601Z,98058.28
2019-01-09T07:26:31.118Z,98050.87
2019-01-09T07:29:04.773Z,98047.00
2019-01-09T07:31:38.208Z,98057.46
2019-01-09T07:34:08.751Z,98051.81
2019-01-09T07:36:39.400Z,98053.45
2019-01-09T07:39:11.086Z,98055.22
2019-01-09T07:41:41.645Z,98053.40
2019-01-09T07:44:12.160Z,98054.69
2019-01-09T07:46:44.750Z,98065.63
2019-01-09T07:49:15.043Z,98071.96
2019-01-09T07:51:45.590Z,98058.04
2019-01-09T07:54:16.137Z,98063.81
2019-01-09T07:56:46.659Z,98067.63
2019-01-09T07:59:17.242Z,98063.49
2019-01-09T08:01:47.820Z,98070.80
2019-01-09T08:04:18.482Z,98079.24
2019-01-09T08:06:49.049Z,98078.95
2019-01-09T08:09:19.613Z,98083.13
2019-01-09T08:11:50.173Z,98090.72
2019-01-09T08:14:20.743Z,98090.13
2019-01-09T08:16:51.306Z,98087.54
2019-01-09T08:19:21.835Z,98088.23
2019-01-09T08:21:52.363Z,98103.11
2019-01-09T08:24:23.368Z,98083.19
2019-01-09T08:26:53.946Z,98089.69
2019-01-09T08:29:24.525Z,98102.92
2019-01-09T08:31:56.226Z,98106.38
2019-01-09T08:34:26.793Z,98104.95
2019-01-09T08:36:57.350Z,98098.19
2019-01-09T08:39:29.684Z,98107.55
2019-01-09T08:42:00.289Z,98112.49
2019-01-09T08:44:30.883Z,98115.23
2019-01-09T08:47:01.464Z,98105.50
2019-01-09T08:49:32.043Z,98113.88
2019-01-09T08:52:02.617Z,98116.52
2019-01-09T08:54:33.174Z,98126.52
2019-01-09T08:57:03.734Z,98134.73
2019-01-09T08:59:34.284Z,98124.63
2019-01-09T09:02:08.247Z,98124.55
2019-01-09T09:04:38.836Z,98125.15
2019-01-09T09:07:09.362Z,98117.14
2019-01-09T09:09:39.948Z,98121.64
2019-01-09T09:12:10.506Z,98123.53
2019-01-09T09:14:41.104Z,98121.45
2019-01-09T09:17:11.676Z,98127.56
2019-01-09T09:19:42.195Z,98124.22
2019-01-09T09:22:13.823Z,98132.23
2019-01-09T09:24:44.436Z,98132.23
2019-01-09T09:27:14.963Z,98138.69
2019-01-09T09:29:45.515Z,98131.95
2019-01-09T09:32:16.097Z,98134.61
2019-01-09T09:34:46.626Z,98145.95
2019-01-09T09:37:19.013Z,98135.62
2019-01-09T09:39:49.447Z,98149.27
2019-01-09T09:42:19.982Z,98135.75
2019-01-09T09:44:50.546Z,98150.55
2019-01-09T09:47:21.127Z,98158.72
2019-01-09T09:49:51.740Z,98153.62
2019-01-09T09:52:22.276Z,98157.22
2019-01-09T09:54:52.843Z,98152.43
2019-01-09T09:57:23.348Z,98148.62
2019-01-09T09:59:53.926Z,98151.27
2019-01-09T10:02:24.460Z,98146.76
2019-01-09T10:04:56.671Z,98140.05
2019-01-09T10:07:27.196Z,98141.66
2019-01-09T10:09:57.770Z,98136.36
2019-01-09T10:12:28.438Z,98133.02
2019-01-09T10:14:59.000Z,98132.03
2019-01-09T10:17:30.289Z,98120.14
2019-01-09T10:20:00.835Z,98134.36
2019-01-09T10:22:31.399Z,98128.44
2019-01-09T10:25:01.987Z,98116.64
2019-01-09T10:27:32.529Z,98124.88
2019-01-09T10:30:03.080Z,98117.94
2019-01-09T10:32:33.602Z,98121.05
2019-01-09T10:35:04.676Z,98116.06
2019-01-09T10:37:35.244Z,98120.29
2019-01-09T10:40:07.623Z,98124.17
2019-01-09T10:42:38.155Z,98107.42
2019-01-09T10:45:09.942Z,98118.92
2019-01-09T10:47:40.452Z,98119.11
2019-01-09T10:50:12.100Z,98115.12
2019-01-09T10:52:42.605Z,98106.31
2019-01-09T10:55:14.945Z,98107.66
2019-01-09T10:57:45.434Z,98097.66
2019-01-09T11:00:23.091Z,98101.88
2019-01-09T11:02:53.924Z,98107.07
2019-01-09T11:05:24.880Z,98114.23
2019-01-09T11:07:55.400Z,98126.45
2019-01-09T11:10:27.496Z,98120.29
2019-01-09T11:12:58.024Z,98128.16
2019-01-09T11:15:28.553Z,98137.70
2019-01-09T11:17:59.086Z,98126.81
2019-01-09T11:20:29.731Z,98136.74
2019-01-09T11:23:00.307Z,98149.05
2019-01-09T11:25:31.596Z,98152.58
2019-01-09T11:28:02.115Z,98145.03
2019-01-09T11:30:32.663Z,98163.98
2019-01-09T11:33:03.225Z,98154.80
2019-01-09T11:35:33.760Z,98163.56
2019-01-09T11:38:04.448Z,98155.91
2019-01-09T11:40:34.970Z,98136.80
2019-01-09T11:43:05.548Z,98146.93
2019-01-09T11:45:36.110Z,98142.23
2019-01-09T11:48:06.916Z,98134.86
2019-01-09T11:50:40.281Z,98133.05
2019-01-09T11:53:10.796Z,98126.23
2019-01-09T11:55:41.352Z,98125.28
2019-01-09T11:58:13.367Z,98120.50
2019-01-09T12:00:43.929Z,98111.45
2019-01-09T12:03:14.487Z,98111.76
2019-01-09T12:05:45.016Z,98112.50
2019-01-09T12:08:15.582Z,98123.64
2019-01-09T12:10:46.163Z,98112.67
2019-01-09T12:13:16.706Z,98114.79
2019-01-09T12:15:47.234Z,98115.78
2019-01-09T12:18:17.741Z,98107.68
2019-01-09T12:20:50.768Z,98111.43
2019-01-09T12:23:21.290Z,98112.38
2019-01-09T12:25:51.885Z,98099.02
2019-01-09T12:28:22.421Z,98108.07
2019-01-09T12:30:52.886Z,98103.62
2019-01-09T12:33:23.517Z,98102.20
2019-01-09T12:35:54.068Z,98107.84
2019-01-09T12:38:24.683Z,98111.09
2019-01-09T12:40:55.270Z,98114.49
2019-01-09T12:43:25.807Z,98106.69
2019-01-09T12:45:56.358Z,98094.74
2019-01-09T12:48:26.940Z,98101.21
2019-01-09T12:50:57.531Z,98096.67
2019-01-09T12:53:33.768Z,98101.16
2019-01-09T12:56:01.470Z,98100.21
2019-01-09T12:58:32.028Z,98099.92
2019-01-09T13:01:02.641Z,98100.39
2019-01-09T13:03:34.386Z,98100.73
2019-01-09T13:06:04.947Z,98099.88
2019-01-09T13:08:35.452Z,98108.63
2019-01-09T13:11:06.022Z,98114.15
2019-01-09T13:13:36.539Z,98104.14
2019-01-09T13:16:07.179Z,98112.52
2019-01-09T13:18:37.747Z,98111.22
2019-01-09T13:21:08.238Z,98101.84
2019-01-09T13:23:38.787Z,98107.16
2019-01-09T13:26:09.383Z,98119.57
2019-01-09T13:28:58.956Z,98112.74
2019-01-09T13:31:29.525Z,98109.47
2019-01-09T13:34:00.054Z,98110.17
2019-01-09T13:36:30.676Z,98103.57
2019-01-09T13:39:01.238Z,98108.32
2019-01-09T13:41:31.795Z,98112.16
2019-01-09T13:44:02.334Z,98123.75
2019-01-09T13:46:32.902Z,98130.52
2019-01-09T13:49:03.467Z,98124.99
2019-01-09T13:51:34.047Z,98123.23
2019-01-09T13:54:05.073Z,98125.77
2019-01-09T13:56:38.963Z,98125.47
2019-01-09T13:59:09.567Z,98122.88
2019-01-09T14:01:40.103Z,98119.34
2019-01-09T14:04:10.682Z,98125.52
2019-01-09T14:06:41.220Z,98135.53
2019-01-09T14:09:12.310Z,98129.88
2019-01-09T14:11:42.863Z,98139.98
2019-01-09T14:14:13.398Z,98128.00
2019-01-09T14:16:45.334Z,98136.58
2019-01-09T14:19:16.437Z,98144.81
2019-01-09T14:21:49.275Z,98135.58
2019-01-09T14:24:19.825Z,98124.70
2019-01-09T14:26:51.691Z,98123.83
2019-01-09T14:29:23.468Z,98133.92
2019-01-09T14:31:56.746Z,98130.98
2019-01-09T14:34:27.291Z,98129.70
2019-01-09T14:36:57.906Z,98137.03
2019-01-09T14:39:29.347Z,98135.92
2019-01-09T14:41:59.896Z,98138.94
2019-01-09T14:44:30.448Z,98132.47
2019-01-09T14:47:01.031Z,98132.12
2019-01-09T14:49:34.064Z,98146.03
2019-01-09T14:52:04.855Z,98134.34
2019-01-09T14:54:35.387Z,98138.88
2019-01-09T14:57:05.960Z,98122.88
2019-01-09T14:59:36.562Z,98140.80
2019-01-09T15:02:07.059Z,98140.22
2019-01-09T15:04:37.634Z,98140.09
2019-01-09T15:07:08.177Z,98144.78
2019-01-09T15:09:41.127Z,98156.55
2019-01-09T15:12:11.706Z,98146.20
2019-01-09T15:14:44.637Z,98149.55
2019-01-09T15:17:16.288Z,98161.06
2019-01-09T15:19:46.802Z,98154.38
2019-01-09T15:22:18.794Z,98160.78
2019-01-09T15:24:49.328Z,98160.37
2019-01-09T15:27:22.585Z,98159.77
2019-01-09T15:29:54.841Z,98162.00
2019-01-09T15:32:25.391Z,98161.66
2019-01-09T15:34:56.651Z,98165.19
2019-01-09T15:37:27.239Z,98156.14
2019-01-09T15:40:05.462Z,98161.19
2019-01-09T15:42:30.062Z,98170.42
2019-01-09T15:45:00.646Z,98172.25
2019-01-09T15:47:31.233Z,98164.84
2019-01-09T15:50:01.753Z,98164.08
2019-01-09T15:52:32.311Z,98161.97
2019-01-09T15:55:02.842Z,98170.20
2019-01-09T15:57:33.403Z,98173.48
2019-01-09T16:00:07.843Z,98177.89
2019-01-09T16:02:38.427Z,98179.25
2019-01-09T16:05:09.253Z,98179.82
2019-01-09T16:07:42.304Z,98187.52
2019-01-09T16:10:14.761Z,98179.04
2019-01-09T16:12:45.718Z,98193.66
2019-01-09T16:15:17.564Z,98191.36
2019-01-09T16:17:48.182Z,98191.30
2019-01-09T16:20:19.730Z,98198.23
2019-01-09T16:22:50.312Z,98200.50
2019-01-09T16:25:20.952Z,98197.10
2019-01-09T16:27:51.608Z,98205.39
2019-01-09T16:30:43.582Z,98197.01
2019-01-09T16:33:14.154Z,98200.22
2019-01-09T16:35:44.736Z,98203.47
2019-01-09T16:38:15.252Z,98206.47
2019-01-09T16:40:45.870Z,98219.46
2019-01-09T16:43:16.421Z,98203.88
2019-01-09T16:45:47.009Z,98210.81
2019-01-09T16:48:17.566Z,98213.88
2019-01-09T16:50:50.939Z,98201.23
2019-01-09T16:53:21.530Z,98207.00
2019-01-09T16:55:55.002Z,98208.80
2019-01-09T16:58:25.587Z,98207.00
2019-01-09T17:00:56.358Z,98208.26
2019-01-09T17:03:26.932Z,98205.52
2019-01-09T17:05:57.523Z,98207.75
2019-01-09T17:08:28.070Z,98204.09
2019-01-09T17:10:58.664Z,98217.02
2019-01-09T17:13:29.214Z,98208.80
2019-01-09T17:15:59.811Z,98216.87
2019-01-09T17:18:33.273Z,98219.61
2019-01-09T17:21:03.833Z,98219.33
2019-01-09T17:23:34.355Z,98218.79
2019-01-09T17:26:05.438Z,98217.97
2019-01-09T17:28:36.038Z,98225.80
2019-01-09T17:31:06.815Z,98222.04
2019-01-09T17:33:37.351Z,98227.20
2019-01-09T17:36:08.186Z,98225.37
2019-01-09T17:38:38.779Z,98220.48
2019-01-09T17:41:09.399Z,98229.06
2019-01-09T17:43:39.941Z,98231.84
2019-01-09T17:46:10.518Z,98232.47
2019-01-09T17:48:41.095Z,98225.06
2019-01-09T17:51:11.725Z,98233.76
2019-01-09T17:53:42.362Z,98238.30
2019-01-09T17:56:15.386Z,98235.24
2019-01-09T17:58:46.051Z,98241.11
2019-01-09T18:01:16.658Z,98245.46
2019-01-09T18:03:47.318Z,98250.63
2019-01-09T18:06:17.850Z,98246.34
2019-01-09T18:08:50.148Z,98258.98
2019-01-09T18:11:20.756Z,98272.66
2019-01-09T18:13:51.334Z,98277.83
2019-01-09T18:16:22.071Z,98278.05
2019-01-09T18:18:53.705Z,98283.81
2019-01-09T18:21:24.245Z,98283.63
2019-01-09T18:23:54.880Z,98285.30
2019-01-09T18:26:25.716Z,98289.81
2019-01-09T18:28:56.329Z,98286.13
2019-01-09T18:32:02.021Z,98293.60
2019-01-09T18:35:34.979Z,98290.35
2019-01-09T18:38:41.370Z,98298.38
2019-01-09T18:41:45.376Z,98309.73
2019-01-09T18:44:51.113Z,98305.98
2019-01-09T18:48:45.220Z,98308.09
2019-01-09T18:52:24.314Z,98320.27
2019-01-09T18:54:54.929Z,98323.33
2019-01-09T18:57:25.641Z,98323.41
2019-01-09T18:59:56.231Z,98328.26
2019-01-09T19:02:29.003Z,98333.00
2019-01-09T19:04:59.596Z,98332.06
2019-01-09T19:07:30.249Z,98339.00
2019-01-09T19:10:00.791Z,98339.34
2019-01-09T19:12:31.432Z,98341.78
2019-01-09T19:15:02.207Z,98341.78
2019-01-09T19:17:32.815Z,98349.53
2019-01-09T19:20:03.403Z,98347.14
2019-01-09T19:22:35.518Z,98347.64
2019-01-09T19:25:09.443Z,98349.14
2019-01-09T19:27:40.221Z,98353.22
2019-01-09T19:30:21.232Z,98351.65
2019-01-09T19:32:53.894Z,98350.36
2019-01-09T19:35:24.514Z,98350.95
2019-01-09T19:37:57.438Z,98360.55
2019-01-09T19:40:27.979Z,98362.34
2019-01-09T19:42:58.556Z,98355.80
2019-01-09T19:45:29.256Z,98363.20
2019-01-09T19:47:59.831Z,98366.14
2019-01-09T19:50:30.349Z,98362.93
2019-01-09T19:53:01.065Z,98364.22
2019-01-09T19:55:31.676Z,98363.88
2019-01-09T19:58:02.276Z,98375.27
2019-01-09T20:00:32.830Z,98380.44
2019-01-09T20:03:03.499Z,98376.33
2019-01-09T20:05:34.510Z,98382.66
2019-01-09T20:08:07.136Z,98390.27
2019-01-09T20:10:37.706Z,98385.72
2019-01-09T20:13:08.312Z,98386.03
2019-01-09T20:15:39.098Z,98389.17
2019-01-09T20:18:09.916Z,98394.14
2019-01-09T20:20:40.666Z,98400.48
2019-01-09T20:23:11.232Z,98393.55
2019-01-09T20:25:41.781Z,98400.52
2019-01-09T20:28:12.365Z,98394.25
2019-01-09T20:30:44.533Z,98402.34
2019-01-09T20:33:15.133Z,98420.52
2019-01-09T20:35:45.728Z,98407.31
2019-01-09T20:38:16.437Z,98417.59
2019-01-09T20:40:48.497Z,98416.21
2019-01-09T20:43:19.052Z,98417.38
2019-01-09T20:45:49.544Z,98407.05
2019-01-09T20:48:20.213Z,98409.48
2019-01-09T20:50:52.506Z,98422.47
2019-01-09T20:53:23.096Z,98426.23
2019-01-09T20:55:56.756Z,98409.70
2019-01-09T20:58:28.087Z,98425.94
2019-01-09T21:00:58.787Z,98434.83
2019-01-09T21:03:29.459Z,98438.86
2019-01-09T21:06:00.136Z,98440.15
2019-01-09T21:08:30.799Z,98443.88
2019-01-09T21:11:04.428Z,98438.50
2019-01-09T21:13:36.148Z,98449.98
2019-01-09T21:16:07.106Z,98446.73
2019-01-09T21:18:37.734Z,98453.66
2019-01-09T21:21:08.574Z,98459.56
2019-01-09T21:23:39.143Z,98459.70
2019-01-09T21:26:09.675Z,98469.48
2019-01-09T21:28:40.230Z,98463.20
2019-01-09T21:31:10.806Z,98467.86
2019-01-09T21:33:41.579Z,98468.42
2019-01-09T21:36:12.140Z,98476.61
2019-01-09T21:38:45.076Z,98480.95
2019-01-09T21:41:15.613Z,98476.14
2019-01-09T21:43:46.211Z,98482.95
2019-01-09T21:46:16.822Z,98482.55
2019-01-09T21:48:49.887Z,98480.58
2019-01-09T21:51:20.390Z,98484.10
2019-01-09T21:53:50.976Z,98488.12
2019-01-09T21:56:21.504Z,98495.26
2019-01-09T21:58:54.853Z,98491.59
2019-01-09T22:01:26.680Z,98484.01
2019-01-09T22:03:57.235Z,98493.67
2019-01-09T22:06:27.768Z,98498.39
2019-01-09T22:08:58.357Z,98498.48
2019-01-09T22:11:30.198Z,98502.41
2019-01-09T22:14:00.756Z,98501.06
2019-01-09T22:16:31.297Z,98507.43
2019-01-09T22:19:11.728Z,98500.37
2019-01-09T22:21:35.761Z,98500.11
2019-01-09T22:24:06.285Z,98500.34
2019-01-09T22:26:36.796Z,98500.34
2019-01-09T22:29:07.336Z,98501.28
2019-01-09T22:31:37.921Z,98509.41
2019-01-09T22:34:08.496Z,98508.58
2019-01-09T22:36:39.001Z,98519.55
2019-01-09T22:39:10.336Z,98513.34
2019-01-09T22:41:40.846Z,98529.19
2019-01-09T22:44:11.407Z,98516.70
2019-01-09T22:46:41.906Z,98517.38
2019-01-09T22:49:12.432Z,98512.92
2019-01-09T22:51:43.010Z,98516.23
2019-01-09T22:54:13.554Z,98508.95
2019-01-09T22:56:44.125Z,98514.94
2019-01-09T22:59:14.644Z,98508.59
2019-01-09T23:01:46.507Z,98512.14
2019-01-09T23:04:17.015Z,98512.00
2019-01-09T23:06:47.563Z,98513.34
2019-01-09T23:09:18.171Z,98516.75
2019-01-09T23:11:48.677Z,98520.46
2019-01-09T23:14:19.245Z,98529.84
2019-01-09T23:16:49.787Z,98525.05
2019-01-09T23:19:20.510Z,98533.15
2019-01-09T23:21:51.043Z,98539.70
2019-01-09T23:24:21.597Z,98540.39
2019-01-09T23:26:52.181Z,98544.52
2019-01-09T23:29:22.773Z,98539.09
2019-01-09T23:31:53.306Z,98539.70
2019-01-09T23:34:23.872Z,98545.66
2019-01-09T23:36:54.420Z,98559.95
2019-01-09T23:39:24.991Z,98555.62
2019-01-09T23:41:56.883Z,98554.33
2019-01-09T23:44:27.466Z,98559.13
2019-01-09T23:46:58.010Z,98557.38
2019-01-09T23:49:28.549Z,98563.22
2019-01-09T23:51:59.108Z,98558.63
2019-01-09T23:54:29.701Z,98558.26
2019-01-09T23:57:00.277Z,98559.80
2019-01-09T23:59:30.785Z,98547.15
